ΕΜΥ, Εθνική Μετεωρολογική Υπηρεσία - Δελτία Καιρού, Προγνώσεις

ΑΕΡΟΝΑΥΤΙΛΙΑ

GREEK AIRPORTS CODES

LGTP 260600Z 03012KT 360V060 9999 FEW020 SCT030 12/06 Q1024 RMK OVC080=

EUROPEAN AIRPORTS CODES

LFPO 260630Z 04004KT CAVOK 08/04 Q1033 NOSIG=